CheckWX is a tool to help pilots better visualize weather data.  It is not intended as a substitute for an official pre-flight weather briefing.

06:49:22 UTC

PAHN TAF
Haines Airport
Haines, Alaska, USA
PAHN 170529Z 1706/1806 11004KT P6SM VCSH BKN020 OVC060 FM171200 09007KT 5SM -RA BR BKN015 OVC025 FM180000 12008KT P6SM VCSH SCT025 OVC050 AMD LTD TO CLD VIS AND WIND

Jun-17@
06:00 UTC

Jun-17 @ 06:00 UTC

Jun-17@
12:00 UTC

Jun-17 @ 12:00 UTC

PAHN 170529Z 1706/1806 11004KT P6SM VCSH BKN020 OVC060
Wind
  • 110° at 4 KTS
Cloud Levels
  • Broken at 2,000' AGL
  • Overcast at 6,000' AGL

Jun-17@
12:00 UTC

Jun-17 @ 12:00 UTC

Jun-18@
00:00 UTC

Jun-18 @ 00:00 UTC

FM171200 09007KT 5SM -RA BR BKN015 OVC025

From

From Standard forecast or significant change

Wind
  • 090° at 7 KTS
Conditions
Light Rain, Mist
Cloud Levels
  • Broken at 1,500' AGL
  • Overcast at 2,500' AGL

Jun-18@
00:00 UTC

Jun-18 @ 00:00 UTC

Jun-18@
06:00 UTC

Jun-18 @ 06:00 UTC

FM180000 12008KT P6SM VCSH SCT025 OVC050 AMD LTD TO CLD VIS AND WIND

From

From Standard forecast or significant change

Wind
  • 120° at 8 KTS
Cloud Levels
  • Scattered at 2,500' AGL
  • Overcast at 5,000' AGL